KRDM

Roberts Field Airport

Redmond, Oregon, USA
METAR KRDM 212256Z 00000KT 10SM FEW090 29/07 A3006 RMK AO2 SLP153 T02940072
Observed Flight Rules
Jun-21 @ 22:56 UTC (57 minutes ago) Visual Flight Rules
Visibility Clouds
10 miles
  • Few at 9,000' AGL
Temperatures Readings
Current 29°C / 84°F
Dewpoint 7°C / 45°F
Humidity 25%
Altimeter 30.06" Hg
Pressure 1015.3 hPa
Elevation 938
METAR KRDM 212256Z 00000KT 10SM FEW090 29/07 A3006 RMK AO2 SLP153 T02940072
Observed Flight Rules
Jun-21 @ 22:56 UTC
(57 minutes ago)
VFR
Clouds
  • Few at 9,000' AGL
Temperature Dewpoint
29°C / 84°F 7°C / 45°F
Humidity Altimeter Pressure
25% 30.06" Hg 1015.3 hPa